Terminal Aerodrome Forecast
Issued by NWS

Home | Current Version | Previous Version | Text Only | Print | Product List | Glossary On
Versions: 1 2 3 4 5 6 7 8 9 10 11 12 13 14 15 16 17 18 19 20 21 22 23 24 25 26 27 28 29 30 31 32 33 34 35 36 37
000
FTUS43 KPAH 182333
TAFOWB
TAF
KOWB 182333Z 1900/1924 08006KT P6SM SCT050 BKN250
     FM190900 10009KT 4SM -SHRA BR OVC020
     FM191200 12006KT 3SM -TSRA BR OVC012CB
     FM191900 23010KT P6SM OVC040=

USA.gov is the U.S. government's official web portal to all federal, state and local government web resources and services.